Wetterdaten: Woche 05.07.10 - 11.07.10 (KW27)
Datum Zeit Temp. Innen Temp. Aussen UV X Diff Temp. Feuchte Inne Feuchte Auss Sonnenschein Luftdruck Regen ab 0,1 Wind Sonnenschein Windben
05.07.2010 00:00 26,3 C 18,7 C 0,0 UV-I 0,0 C 48 % 68 % 0 % 1022,9 hPa 0,0 l/m 0,0 km/h (0 Bft) 0,00 h 0,0 km/h (0 Bft)
05.07.2010 01:00 26,0 C 17,7 C 0,0 UV-I 0,0 C 49 % 73 % 0 % 1023,3 hPa 0,0 l/m 0,0 km/h (0 Bft) 0,00 h 0,0 km/h (0 Bft)
05.07.2010 02:00 25,7 C 16,6 C 0,0 UV-I 0,0 C 50 % 79 % 0 % 1023,2 hPa 0,0 l/m 0,0 km/h (0 Bft) 0,00 h 0,0 km/h (0 Bft)
05.07.2010 03:00 25,3 C 16,1 C 0,0 UV-I 0,0 C 50 % 78 % 0 % 1023,2 hPa 0,0 l/m 0,1 km/h (0 Bft) 0,00 h 0,8 km/h (0 Bft)
05.07.2010 04:00 24,9 C 15,6 C 0,0 UV-I 0,0 C 48 % 74 % 0 % 1022,7 hPa 0,0 l/m 0,1 km/h (0 Bft) 0,00 h 0,0 km/h (0 Bft)
05.07.2010 05:00 24,5 C 15,2 C 0,0 UV-I 0,0 C 46 % 72 % 0 % 1022,7 hPa 0,0 l/m 0,0 km/h (0 Bft) 0,00 h 0,0 km/h (0 Bft)
05.07.2010 06:00 24,4 C 15,2 C 0,5 UV-I 0,0 C 46 % 73 % 0 % 1022,5 hPa 0,0 l/m 0,2 km/h (0 Bft) 0,00 h 0,6 km/h (0 Bft)
05.07.2010 07:00 24,3 C 16,1 C 1,8 UV-I 0,0 C 47 % 72 % 0 % 1022,4 hPa 0,0 l/m 0,5 km/h (0 Bft) 0,00 h 0,7 km/h (0 Bft)
05.07.2010 08:00 24,2 C 17,9 C 3,6 UV-I 3,5 C 47 % 67 % 72 % 1022,5 hPa 0,0 l/m 3,6 km/h (1 Bft) 0,50 h 5,3 km/h (1 Bft)
05.07.2010 09:00 24,3 C 19,7 C 7,0 UV-I 4,8 C 48 % 64 % 100 % 1022,8 hPa 0,0 l/m 3,9 km/h (1 Bft) 0,83 h 4,6 km/h (1 Bft)
05.07.2010 10:00 24,9 C 20,9 C 7,9 UV-I 4,9 C 49 % 63 % 100 % 1023,3 hPa 0,0 l/m 3,4 km/h (1 Bft) 1,00 h 3,8 km/h (1 Bft)
05.07.2010 11:00 25,3 C 20,7 C 5,0 UV-I 2,7 C 50 % 67 % 76 % 1023,6 hPa 0,0 l/m 3,3 km/h (1 Bft) 0,47 h 3,7 km/h (1 Bft)
05.07.2010 12:00 25,4 C 21,1 C 6,6 UV-I 3,1 C 52 % 68 % 75 % 1023,8 hPa 0,0 l/m 3,7 km/h (1 Bft) 0,57 h 4,6 km/h (1 Bft)
05.07.2010 13:00 25,5 C 21,7 C 6,4 UV-I 2,9 C 52 % 67 % 80 % 1023,7 hPa 0,0 l/m 4,1 km/h (1 Bft) 0,47 h 5,2 km/h (1 Bft)
05.07.2010 14:00 25,9 C 23,2 C 9,7 UV-I 4,9 C 52 % 62 % 99 % 1023,7 hPa 0,0 l/m 4,5 km/h (1 Bft) 0,93 h 6,1 km/h (2 Bft)
05.07.2010 15:00 26,8 C 24,2 C 8,7 UV-I 4,2 C 50 % 60 % 100 % 1024,2 hPa 0,0 l/m 6,2 km/h (2 Bft) 0,83 h 7,8 km/h (2 Bft)
05.07.2010 16:00 27,2 C 24,3 C 5,8 UV-I 2,9 C 49 % 58 % 83 % 1023,6 hPa 0,0 l/m 5,4 km/h (1 Bft) 0,47 h 6,5 km/h (2 Bft)
05.07.2010 17:00 26,9 C 23,6 C 2,7 UV-I 1,3 C 49 % 60 % 37 % 1022,9 hPa 0,0 l/m 5,7 km/h (1 Bft) 0,00 h 6,9 km/h (2 Bft)
05.07.2010 18:00 26,6 C 22,8 C 3,3 UV-I 1,6 C 50 % 63 % 45 % 1022,9 hPa 0,0 l/m 7,1 km/h (2 Bft) 0,07 h 10,3 km/h (2 Bft)
05.07.2010 19:00 26,5 C 22,5 C 1,1 UV-I 0,5 C 50 % 61 % 14 % 1022,9 hPa 0,0 l/m 4,7 km/h (1 Bft) 0,00 h 5,3 km/h (1 Bft)
05.07.2010 20:00 26,1 C 21,4 C 0,0 UV-I 0,0 C 50 % 66 % 0 % 1023,0 hPa 0,0 l/m 2,8 km/h (1 Bft) 0,00 h 3,8 km/h (1 Bft)
05.07.2010 21:00 25,4 C 19,6 C 0,0 UV-I 0,0 C 55 % 80 % 0 % 1023,3 hPa 0,1 l/m 2,1 km/h (1 Bft) 0,00 h 2,6 km/h (1 Bft)
05.07.2010 22:00 25,2 C 18,8 C 0,0 UV-I 0,0 C 56 % 76 % 0 % 1024,1 hPa 0,0 l/m 6,3 km/h (2 Bft) 0,00 h 7,3 km/h (2 Bft)
05.07.2010 23:00 24,9 C 17,6 C 0,0 UV-I 0,0 C 54 % 72 % 0 % 1024,8 hPa 0,0 l/m 1,6 km/h (1 Bft) 0,00 h 2,6 km/h (1 Bft)
06.07.2010 00:00 24,7 C 16,4 C 0,0 UV-I 0,0 C 53 % 74 % 0 % 1025,2 hPa 0,0 l/m 0,3 km/h (0 Bft) 0,00 h 0,8 km/h (0 Bft)
06.07.2010 01:00 24,2 C 15,1 C 0,0 UV-I 0,0 C 51 % 77 % 0 % 1025,3 hPa 0,0 l/m 0,0 km/h (0 Bft) 0,00 h 0,0 km/h (0 Bft)
06.07.2010 02:00 23,7 C 14,1 C 0,0 UV-I 0,0 C 51 % 81 % 0 % 1025,4 hPa 0,0 l/m 0,0 km/h (0 Bft) 0,00 h 0,0 km/h (0 Bft)
06.07.2010 03:00 23,4 C 13,8 C 0,0 UV-I 0,0 C 51 % 83 % 0 % 1025,5 hPa 0,0 l/m 0,0 km/h (0 Bft) 0,00 h 0,0 km/h (0 Bft)
06.07.2010 04:00 23,3 C 13,9 C 0,0 UV-I 0,0 C 51 % 83 % 0 % 1025,7 hPa 0,0 l/m 0,0 km/h (0 Bft) 0,00 h 0,0 km/h (0 Bft)
06.07.2010 05:00 23,2 C 13,6 C 0,0 UV-I 0,0 C 51 % 83 % 0 % 1025,9 hPa 0,0 l/m 0,0 km/h (0 Bft) 0,00 h 0,0 km/h (0 Bft)
06.07.2010 06:00 22,9 C 12,9 C 0,5 UV-I 0,0 C 51 % 86 % 0 % 1026,1 hPa 0,0 l/m 0,0 km/h (0 Bft) 0,00 h 0,0 km/h (0 Bft)
06.07.2010 07:00 22,9 C 14,0 C 1,6 UV-I 0,0 C 52 % 85 % 0 % 1026,3 hPa 0,0 l/m 0,5 km/h (0 Bft) 0,00 h 1,3 km/h (1 Bft)
06.07.2010 08:00 22,9 C 16,0 C 3,4 UV-I 4,2 C 52 % 75 % 68 % 1026,6 hPa 0,0 l/m 2,3 km/h (1 Bft) 0,57 h 3,9 km/h (1 Bft)
06.07.2010 09:00 23,1 C 18,4 C 11,1 UV-I 7,0 C 51 % 62 % 100 % 1027,0 hPa 0,0 l/m 5,7 km/h (1 Bft) 1,00 h 7,2 km/h (2 Bft)
06.07.2010 10:00 23,3 C 19,7 C 10,6 UV-I 5,1 C 49 % 54 % 99 % 1027,4 hPa 0,0 l/m 7,3 km/h (2 Bft) 0,90 h 9,3 km/h (2 Bft)
06.07.2010 11:00 23,8 C 20,3 C 8,3 UV-I 4,1 C 48 % 51 % 93 % 1027,7 hPa 0,0 l/m 9,2 km/h (2 Bft) 0,73 h 10,7 km/h (2 Bft)
06.07.2010 12:00 24,2 C 20,5 C 4,6 UV-I 2,5 C 47 % 49 % 71 % 1027,7 hPa 0,0 l/m 5,9 km/h (2 Bft) 0,30 h 7,0 km/h (2 Bft)
06.07.2010 13:00 24,5 C 21,6 C 7,7 UV-I 3,8 C 46 % 47 % 93 % 1027,8 hPa 0,0 l/m 7,8 km/h (2 Bft) 0,73 h 9,7 km/h (2 Bft)
06.07.2010 14:00 25,1 C 21,9 C 7,0 UV-I 3,1 C 44 % 46 % 84 % 1028,0 hPa 0,0 l/m 7,5 km/h (2 Bft) 0,47 h 8,6 km/h (2 Bft)
06.07.2010 15:00 25,8 C 22,0 C 5,6 UV-I 2,9 C 42 % 46 % 78 % 1028,0 hPa 0,0 l/m 6,3 km/h (2 Bft) 0,33 h 6,8 km/h (2 Bft)
06.07.2010 16:00 26,5 C 23,1 C 7,4 UV-I 4,1 C 41 % 43 % 96 % 1028,5 hPa 0,0 l/m 5,6 km/h (1 Bft) 0,77 h 6,9 km/h (2 Bft)
06.07.2010 17:00 27,1 C 23,2 C 6,2 UV-I 3,4 C 40 % 41 % 91 % 1028,2 hPa 0,0 l/m 5,8 km/h (2 Bft) 0,53 h 7,3 km/h (2 Bft)
06.07.2010 18:00 27,0 C 22,4 C 2,4 UV-I 1,6 C 40 % 42 % 45 % 1027,6 hPa 0,0 l/m 5,4 km/h (1 Bft) 0,10 h 6,2 km/h (2 Bft)
06.07.2010 19:00 26,3 C 21,7 C 1,1 UV-I 0,2 C 41 % 45 % 4 % 1026,6 hPa 0,0 l/m 3,1 km/h (1 Bft) 0,00 h 4,3 km/h (1 Bft)
06.07.2010 20:00 25,8 C 21,1 C 0,2 UV-I 0,0 C 42 % 47 % 0 % 1026,2 hPa 0,0 l/m 1,9 km/h (1 Bft) 0,00 h 2,6 km/h (1 Bft)
06.07.2010 21:00 25,3 C 20,1 C 0,0 UV-I 0,0 C 43 % 49 % 0 % 1026,5 hPa 0,0 l/m 4,1 km/h (1 Bft) 0,00 h 4,9 km/h (1 Bft)
06.07.2010 22:00 24,8 C 18,4 C 0,0 UV-I 0,0 C 44 % 53 % 0 % 1027,2 hPa 0,0 l/m 1,9 km/h (1 Bft) 0,00 h 2,3 km/h (1 Bft)
06.07.2010 23:00 24,4 C 16,8 C 0,0 UV-I 0,0 C 44 % 58 % 0 % 1027,5 hPa 0,0 l/m 1,1 km/h (0 Bft) 0,00 h 0,7 km/h (0 Bft)
07.07.2010 00:00 24,1 C 15,5 C 0,0 UV-I 0,0 C 43 % 63 % 0 % 1027,3 hPa 0,0 l/m 0,0 km/h (0 Bft) 0,00 h 0,1 km/h (0 Bft)
07.07.2010 01:00 23,6 C 14,2 C 0,0 UV-I 0,0 C 44 % 68 % 0 % 1027,0 hPa 0,0 l/m 0,0 km/h (0 Bft) 0,00 h 0,0 km/h (0 Bft)
07.07.2010 02:00 23,1 C 12,8 C 0,0 UV-I 0,0 C 45 % 73 % 0 % 1026,6 hPa 0,0 l/m 0,0 km/h (0 Bft) 0,00 h 0,0 km/h (0 Bft)
07.07.2010 03:00 22,7 C 11,7 C 0,0 UV-I 0,0 C 45 % 78 % 0 % 1026,0 hPa 0,0 l/m 0,0 km/h (0 Bft) 0,00 h 0,0 km/h (0 Bft)
07.07.2010 04:00 22,3 C 11,0 C 0,0 UV-I 0,0 C 46 % 81 % 0 % 1025,7 hPa 0,0 l/m 0,0 km/h (0 Bft) 0,00 h 0,0 km/h (0 Bft)
07.07.2010 05:00 22,1 C 10,6 C 0,0 UV-I 0,0 C 46 % 83 % 0 % 1025,5 hPa 0,0 l/m 0,0 km/h (0 Bft) 0,00 h 0,0 km/h (0 Bft)
07.07.2010 06:00 21,9 C 10,5 C 0,1 UV-I 0,0 C 47 % 84 % 0 % 1025,4 hPa 0,0 l/m 0,0 km/h (0 Bft) 0,00 h 0,0 km/h (0 Bft)
07.07.2010 07:00 21,9 C 12,1 C 1,0 UV-I 0,0 C 47 % 81 % 1 % 1025,6 hPa 0,0 l/m 0,0 km/h (0 Bft) 0,00 h 0,0 km/h (0 Bft)
07.07.2010 08:00 22,0 C 15,6 C 3,1 UV-I 4,5 C 47 % 70 % 81 % 1025,6 hPa 0,0 l/m 1,1 km/h (1 Bft) 0,67 h 2,6 km/h (1 Bft)
07.07.2010 09:00 22,2 C 19,5 C 11,9 UV-I 6,9 C 48 % 58 % 100 % 1025,8 hPa 0,0 l/m 2,5 km/h (1 Bft) 0,97 h 4,3 km/h (1 Bft)
07.07.2010 10:00 22,6 C 21,5 C 16,3 UV-I 7,0 C 46 % 47 % 100 % 1026,0 hPa 0,0 l/m 2,8 km/h (1 Bft) 0,93 h 3,6 km/h (1 Bft)
07.07.2010 11:00 22,7 C 22,6 C 13,6 UV-I 6,4 C 45 % 42 % 100 % 1026,0 hPa 0,0 l/m 4,1 km/h (1 Bft) 0,93 h 5,0 km/h (1 Bft)
07.07.2010 12:00 23,1 C 23,7 C 8,4 UV-I 6,0 C 44 % 39 % 100 % 1025,9 hPa 0,0 l/m 4,0 km/h (1 Bft) 0,90 h 5,4 km/h (1 Bft)
07.07.2010 13:00 23,8 C 25,1 C 7,9 UV-I 4,9 C 43 % 36 % 100 % 1025,7 hPa 0,0 l/m 5,0 km/h (1 Bft) 0,97 h 6,2 km/h (2 Bft)
07.07.2010 14:00 24,9 C 26,3 C 8,5 UV-I 5,0 C 42 % 34 % 100 % 1025,7 hPa 0,0 l/m 5,1 km/h (1 Bft) 0,93 h 5,8 km/h (1 Bft)
07.07.2010 15:00 26,8 C 27,1 C 9,6 UV-I 5,0 C 38 % 32 % 100 % 1026,7 hPa 0,0 l/m 4,1 km/h (1 Bft) 0,97 h 4,9 km/h (1 Bft)
07.07.2010 16:00 28,1 C 27,5 C 9,6 UV-I 4,1 C 35 % 31 % 100 % 1026,9 hPa 0,0 l/m 4,5 km/h (1 Bft) 1,00 h 5,9 km/h (2 Bft)
07.07.2010 17:00 28,8 C 28,1 C 11,6 UV-I 4,7 C 34 % 30 % 100 % 1026,3 hPa 0,0 l/m 4,2 km/h (1 Bft) 0,97 h 6,0 km/h (2 Bft)
07.07.2010 18:00 28,7 C 27,4 C 4,2 UV-I 3,2 C 34 % 33 % 73 % 1025,0 hPa 0,0 l/m 2,8 km/h (1 Bft) 0,57 h 3,5 km/h (1 Bft)
07.07.2010 19:00 27,7 C 26,8 C 1,9 UV-I 0,4 C 36 % 34 % 11 % 1023,7 hPa 0,0 l/m 1,5 km/h (1 Bft) 0,00 h 1,9 km/h (1 Bft)
07.07.2010 20:00 27,1 C 26,0 C 0,1 UV-I 0,0 C 38 % 38 % 0 % 1023,2 hPa 0,0 l/m 0,1 km/h (0 Bft) 0,00 h 0,3 km/h (0 Bft)
07.07.2010 21:00 26,6 C 24,8 C 0,0 UV-I 0,0 C 40 % 42 % 0 % 1023,0 hPa 0,0 l/m 0,2 km/h (0 Bft) 0,00 h 0,2 km/h (0 Bft)
07.07.2010 22:00 26,0 C 23,4 C 0,0 UV-I 0,0 C 42 % 47 % 0 % 1023,3 hPa 0,0 l/m 0,0 km/h (0 Bft) 0,00 h 0,0 km/h (0 Bft)
07.07.2010 23:00 25,6 C 22,1 C 0,0 UV-I 0,0 C 44 % 51 % 0 % 1023,3 hPa 0,0 l/m 0,0 km/h (0 Bft) 0,00 h 0,0 km/h (0 Bft)
08.07.2010 00:00 25,3 C 21,0 C 0,0 UV-I 0,0 C 45 % 57 % 0 % 1023,2 hPa 0,0 l/m 0,0 km/h (0 Bft) 0,00 h 0,0 km/h (0 Bft)
08.07.2010 01:00 25,1 C 20,3 C 0,0 UV-I 0,0 C 46 % 60 % 0 % 1022,8 hPa 0,0 l/m 0,1 km/h (0 Bft) 0,00 h 0,2 km/h (0 Bft)
08.07.2010 02:00 25,0 C 19,4 C 0,0 UV-I 0,0 C 47 % 64 % 0 % 1022,5 hPa 0,0 l/m 0,0 km/h (0 Bft) 0,00 h 0,0 km/h (0 Bft)
08.07.2010 03:00 24,8 C 18,7 C 0,0 UV-I 0,0 C 48 % 68 % 0 % 1022,5 hPa 0,0 l/m 0,0 km/h (0 Bft) 0,00 h 0,0 km/h (0 Bft)
08.07.2010 04:00 24,7 C 18,2 C 0,0 UV-I 0,0 C 49 % 70 % 0 % 1022,4 hPa 0,0 l/m 0,0 km/h (0 Bft) 0,00 h 0,0 km/h (0 Bft)
08.07.2010 05:00 24,5 C 17,9 C 0,0 UV-I 0,0 C 48 % 69 % 0 % 1022,0 hPa 0,0 l/m 0,1 km/h (0 Bft) 0,00 h 0,2 km/h (0 Bft)
08.07.2010 06:00 24,3 C 17,7 C 0,4 UV-I 0,0 C 49 % 71 % 0 % 1022,0 hPa 0,0 l/m 1,9 km/h (1 Bft) 0,00 h 3,5 km/h (1 Bft)
08.07.2010 07:00 24,2 C 19,1 C 1,6 UV-I 0,1 C 50 % 69 % 2 % 1022,0 hPa 0,0 l/m 5,0 km/h (1 Bft) 0,00 h 6,9 km/h (2 Bft)
08.07.2010 08:00 24,2 C 21,0 C 3,2 UV-I 3,5 C 50 % 64 % 66 % 1022,1 hPa 0,0 l/m 5,3 km/h (1 Bft) 0,57 h 6,0 km/h (2 Bft)
08.07.2010 09:00 24,4 C 24,5 C 11,1 UV-I 6,8 C 51 % 54 % 100 % 1022,5 hPa 0,0 l/m 1,6 km/h (1 Bft) 0,87 h 1,9 km/h (1 Bft)
08.07.2010 10:00 24,7 C 27,7 C 16,6 UV-I 6,8 C 49 % 43 % 100 % 1022,5 hPa 0,0 l/m 2,4 km/h (1 Bft) 0,73 h 4,2 km/h (1 Bft)
08.07.2010 11:00 25,0 C 29,1 C 14,1 UV-I 6,3 C 48 % 37 % 100 % 1022,7 hPa 0,0 l/m 3,6 km/h (1 Bft) 0,97 h 4,5 km/h (1 Bft)
08.07.2010 12:00 25,3 C 30,4 C 9,9 UV-I 5,3 C 46 % 33 % 100 % 1022,8 hPa 0,0 l/m 4,6 km/h (1 Bft) 0,97 h 5,4 km/h (1 Bft)
08.07.2010 13:00 25,8 C 31,3 C 9,1 UV-I 4,6 C 44 % 30 % 100 % 1022,8 hPa 0,0 l/m 5,2 km/h (1 Bft) 0,87 h 6,6 km/h (2 Bft)
08.07.2010 14:00 26,9 C 32,2 C 9,3 UV-I 4,3 C 42 % 29 % 100 % 1022,9 hPa 0,0 l/m 5,0 km/h (1 Bft) 0,87 h 5,1 km/h (1 Bft)
08.07.2010 15:00 28,7 C 33,2 C 9,7 UV-I 4,1 C 39 % 27 % 100 % 1024,0 hPa 0,0 l/m 4,9 km/h (1 Bft) 0,90 h 6,2 km/h (2 Bft)
08.07.2010 16:00 30,3 C 33,4 C 11,5 UV-I 4,1 C 36 % 26 % 100 % 1025,6 hPa 0,0 l/m 5,2 km/h (1 Bft) 0,70 h 5,5 km/h (1 Bft)
08.07.2010 17:00 30,9 C 33,3 C 11,2 UV-I 3,9 C 35 % 27 % 100 % 1024,8 hPa 0,0 l/m 4,0 km/h (1 Bft) 0,90 h 4,8 km/h (1 Bft)
08.07.2010 18:00 30,5 C 32,3 C 4,5 UV-I 3,0 C 35 % 28 % 71 % 1023,1 hPa 0,0 l/m 3,1 km/h (1 Bft) 0,53 h 3,8 km/h (1 Bft)
08.07.2010 19:00 29,2 C 31,2 C 1,7 UV-I 0,1 C 38 % 30 % 3 % 1021,7 hPa 0,0 l/m 1,2 km/h (1 Bft) 0,00 h 2,2 km/h (1 Bft)
08.07.2010 20:00 28,6 C 30,2 C 0,3 UV-I 0,0 C 40 % 35 % 0 % 1021,0 hPa 0,0 l/m 0,2 km/h (0 Bft) 0,00 h 0,4 km/h (0 Bft)
08.07.2010 21:00 28,2 C 27,8 C 0,0 UV-I 0,0 C 42 % 44 % 0 % 1021,0 hPa 0,0 l/m 0,0 km/h (0 Bft) 0,00 h 0,0 km/h (0 Bft)
08.07.2010 22:00 27,7 C 25,1 C 0,0 UV-I 0,0 C 45 % 52 % 0 % 1021,1 hPa 0,0 l/m 0,0 km/h (0 Bft) 0,00 h 0,0 km/h (0 Bft)
08.07.2010 23:00 27,1 C 23,0 C 0,0 UV-I 0,0 C 47 % 58 % 0 % 1021,0 hPa 0,0 l/m 0,1 km/h (0 Bft) 0,00 h 0,0 km/h (0 Bft)
09.07.2010 00:00 26,7 C 21,7 C 0,0 UV-I 0,0 C 48 % 62 % 0 % 1021,0 hPa 0,0 l/m 0,0 km/h (0 Bft) 0,00 h 0,0 km/h (0 Bft)
09.07.2010 01:00 26,3 C 20,8 C 0,0 UV-I 0,0 C 48 % 65 % 0 % 1021,1 hPa 0,0 l/m 0,0 km/h (0 Bft) 0,00 h 0,0 km/h (0 Bft)
09.07.2010 02:00 26,0 C 19,9 C 0,0 UV-I 0,0 C 50 % 70 % 0 % 1020,9 hPa 0,0 l/m 0,0 km/h (0 Bft) 0,00 h 0,0 km/h (0 Bft)
09.07.2010 03:00 25,8 C 18,9 C 0,0 UV-I 0,0 C 51 % 75 % 0 % 1021,0 hPa 0,0 l/m 0,0 km/h (0 Bft) 0,00 h 0,0 km/h (0 Bft)
09.07.2010 04:00 25,6 C 18,1 C 0,0 UV-I 0,0 C 52 % 80 % 0 % 1020,8 hPa 0,0 l/m 0,0 km/h (0 Bft) 0,00 h 0,0 km/h (0 Bft)
09.07.2010 05:00 25,4 C 17,7 C 0,0 UV-I 0,0 C 53 % 81 % 0 % 1020,5 hPa 0,0 l/m 0,1 km/h (0 Bft) 0,00 h 0,3 km/h (0 Bft)
09.07.2010 06:00 25,2 C 17,9 C 0,1 UV-I 0,0 C 53 % 80 % 0 % 1020,4 hPa 0,0 l/m 0,8 km/h (0 Bft) 0,00 h 1,7 km/h (1 Bft)
09.07.2010 07:00 25,1 C 19,2 C 1,4 UV-I 0,0 C 53 % 76 % 0 % 1020,6 hPa 0,0 l/m 2,3 km/h (1 Bft) 0,00 h 3,6 km/h (1 Bft)
09.07.2010 08:00 25,2 C 21,9 C 2,9 UV-I 3,2 C 53 % 69 % 67 % 1020,8 hPa 0,0 l/m 4,0 km/h (1 Bft) 0,53 h 5,7 km/h (1 Bft)
09.07.2010 09:00 25,6 C 25,5 C 10,2 UV-I 4,7 C 52 % 58 % 100 % 1020,9 hPa 0,0 l/m 4,0 km/h (1 Bft) 0,70 h 5,1 km/h (1 Bft)
09.07.2010 10:00 25,9 C 28,5 C 15,6 UV-I 5,7 C 52 % 50 % 100 % 1020,9 hPa 0,0 l/m 4,2 km/h (1 Bft) 0,80 h 5,6 km/h (1 Bft)
09.07.2010 11:00 26,1 C 31,2 C 13,9 UV-I 5,7 C 52 % 42 % 100 % 1020,6 hPa 0,0 l/m 3,9 km/h (1 Bft) 0,77 h 5,1 km/h (1 Bft)
09.07.2010 12:00 26,4 C 33,2 C 9,8 UV-I 5,4 C 51 % 34 % 100 % 1020,3 hPa 0,0 l/m 3,8 km/h (1 Bft) 0,80 h 4,9 km/h (1 Bft)
09.07.2010 13:00 27,0 C 35,0 C 9,5 UV-I 4,3 C 49 % 31 % 100 % 1020,3 hPa 0,0 l/m 6,7 km/h (2 Bft) 0,73 h 8,3 km/h (2 Bft)
09.07.2010 14:00 27,7 C 33,9 C 5,7 UV-I 1,9 C 46 % 32 % 54 % 1020,4 hPa 0,0 l/m 3,2 km/h (1 Bft) 0,20 h 3,9 km/h (1 Bft)
09.07.2010 15:00 28,3 C 34,6 C 7,4 UV-I 3,2 C 46 % 33 % 89 % 1020,6 hPa 0,0 l/m 2,5 km/h (1 Bft) 0,77 h 2,8 km/h (1 Bft)
09.07.2010 16:00 29,2 C 35,7 C 10,0 UV-I 3,7 C 44 % 30 % 91 % 1020,7 hPa 0,0 l/m 3,4 km/h (1 Bft) 0,63 h 5,1 km/h (1 Bft)
09.07.2010 17:00 30,6 C 35,7 C 10,4 UV-I 3,4 C 40 % 29 % 95 % 1021,9 hPa 0,0 l/m 7,4 km/h (2 Bft) 0,90 h 9,1 km/h (2 Bft)
09.07.2010 18:00 30,9 C 34,7 C 4,7 UV-I 2,5 C 39 % 30 % 70 % 1021,4 hPa 0,0 l/m 4,6 km/h (1 Bft) 0,50 h 4,8 km/h (1 Bft)
09.07.2010 19:00 29,9 C 33,9 C 2,4 UV-I 0,2 C 41 % 33 % 4 % 1020,2 hPa 0,0 l/m 2,1 km/h (1 Bft) 0,00 h 2,2 km/h (1 Bft)
09.07.2010 20:00 29,4 C 32,6 C 0,7 UV-I 0,0 C 44 % 38 % 0 % 1020,2 hPa 0,0 l/m 2,1 km/h (1 Bft) 0,00 h 3,9 km/h (1 Bft)
09.07.2010 21:00 29,1 C 31,0 C 0,0 UV-I 0,0 C 45 % 42 % 0 % 1020,6 hPa 0,0 l/m 1,0 km/h (0 Bft) 0,00 h 2,0 km/h (1 Bft)
09.07.2010 22:00 28,7 C 29,4 C 0,0 UV-I 0,0 C 46 % 46 % 0 % 1020,9 hPa 0,0 l/m 0,4 km/h (0 Bft) 0,00 h 0,7 km/h (0 Bft)
09.07.2010 23:00 28,4 C 28,2 C 0,0 UV-I 0,0 C 47 % 50 % 0 % 1021,3 hPa 0,0 l/m 0,1 km/h (0 Bft) 0,00 h 0,1 km/h (0 Bft)
10.07.2010 00:00 28,1 C 27,4 C 0,0 UV-I 0,0 C 49 % 54 % 0 % 1021,7 hPa 0,0 l/m 0,0 km/h (0 Bft) 0,00 h 0,0 km/h (0 Bft)
10.07.2010 01:00 27,8 C 26,0 C 0,0 UV-I 0,0 C 51 % 60 % 0 % 1021,7 hPa 0,0 l/m 0,0 km/h (0 Bft) 0,00 h 0,0 km/h (0 Bft)
10.07.2010 02:00 27,6 C 24,4 C 0,0 UV-I 0,0 C 53 % 65 % 0 % 1021,9 hPa 0,0 l/m 0,0 km/h (0 Bft) 0,00 h 0,1 km/h (0 Bft)
10.07.2010 03:00 27,3 C 23,1 C 0,0 UV-I 0,0 C 54 % 70 % 0 % 1022,0 hPa 0,0 l/m 0,0 km/h (0 Bft) 0,00 h 0,0 km/h (0 Bft)
10.07.2010 04:00 27,1 C 22,2 C 0,0 UV-I 0,0 C 55 % 75 % 0 % 1022,0 hPa 0,0 l/m 0,0 km/h (0 Bft) 0,00 h 0,0 km/h (0 Bft)
10.07.2010 05:00 26,8 C 21,3 C 0,0 UV-I 0,0 C 56 % 79 % 0 % 1021,9 hPa 0,0 l/m 0,0 km/h (0 Bft) 0,00 h 0,0 km/h (0 Bft)
10.07.2010 06:00 26,7 C 21,1 C 0,1 UV-I 0,0 C 57 % 81 % 0 % 1022,4 hPa 0,0 l/m 0,0 km/h (0 Bft) 0,00 h 0,0 km/h (0 Bft)
10.07.2010 07:00 26,7 C 22,2 C 0,8 UV-I 0,5 C 58 % 79 % 14 % 1022,7 hPa 0,0 l/m 0,0 km/h (0 Bft) 0,00 h 0,0 km/h (0 Bft)
10.07.2010 08:00 26,8 C 24,5 C 2,6 UV-I 3,7 C 57 % 72 % 73 % 1022,9 hPa 0,0 l/m 1,8 km/h (1 Bft) 0,60 h 2,2 km/h (1 Bft)
10.07.2010 09:00 27,0 C 27,4 C 8,2 UV-I 6,9 C 56 % 61 % 100 % 1022,9 hPa 0,0 l/m 1,9 km/h (1 Bft) 0,97 h 2,5 km/h (1 Bft)
10.07.2010 10:00 27,2 C 29,6 C 12,8 UV-I 6,6 C 56 % 52 % 100 % 1023,0 hPa 0,0 l/m 2,8 km/h (1 Bft) 1,00 h 3,1 km/h (1 Bft)
10.07.2010 11:00 27,3 C 31,8 C 13,3 UV-I 5,8 C 55 % 45 % 100 % 1023,1 hPa 0,0 l/m 3,5 km/h (1 Bft) 1,00 h 4,3 km/h (1 Bft)
10.07.2010 12:00 27,6 C 33,3 C 10,1 UV-I 5,3 C 55 % 43 % 100 % 1023,0 hPa 0,0 l/m 4,5 km/h (1 Bft) 1,00 h 5,2 km/h (1 Bft)
10.07.2010 13:00 28,0 C 34,5 C 9,4 UV-I 5,6 C 54 % 39 % 100 % 1022,7 hPa 0,0 l/m 3,5 km/h (1 Bft) 0,90 h 3,7 km/h (1 Bft)
10.07.2010 14:00 29,0 C 35,8 C 9,5 UV-I 4,7 C 52 % 34 % 100 % 1022,3 hPa 0,0 l/m 5,1 km/h (1 Bft) 0,97 h 6,8 km/h (2 Bft)
10.07.2010 15:00 30,6 C 36,7 C 10,0 UV-I 4,5 C 48 % 31 % 100 % 1023,1 hPa 0,0 l/m 5,1 km/h (1 Bft) 0,97 h 6,5 km/h (2 Bft)
10.07.2010 16:00 31,9 C 37,3 C 11,2 UV-I 4,7 C 45 % 31 % 100 % 1023,5 hPa 0,0 l/m 3,7 km/h (1 Bft) 0,93 h 3,8 km/h (1 Bft)
10.07.2010 17:00 32,3 C 37,4 C 9,3 UV-I 4,0 C 44 % 31 % 99 % 1022,2 hPa 0,0 l/m 4,4 km/h (1 Bft) 0,93 h 4,9 km/h (1 Bft)
10.07.2010 18:00 31,9 C 36,6 C 4,4 UV-I 2,1 C 44 % 31 % 56 % 1020,5 hPa 0,0 l/m 4,7 km/h (1 Bft) 0,27 h 6,0 km/h (2 Bft)
10.07.2010 19:00 30,9 C 35,2 C 2,1 UV-I 0,1 C 46 % 35 % 4 % 1019,1 hPa 0,0 l/m 5,0 km/h (1 Bft) 0,00 h 6,1 km/h (2 Bft)
10.07.2010 20:00 30,3 C 33,8 C 0,5 UV-I 0,0 C 48 % 40 % 0 % 1018,2 hPa 0,0 l/m 3,5 km/h (1 Bft) 0,00 h 5,3 km/h (1 Bft)
10.07.2010 21:00 30,0 C 32,4 C 0,0 UV-I 0,0 C 49 % 43 % 0 % 1017,6 hPa 0,0 l/m 4,6 km/h (1 Bft) 0,00 h 6,0 km/h (2 Bft)
10.07.2010 22:00 29,7 C 31,2 C 0,0 UV-I 0,0 C 50 % 47 % 0 % 1017,2 hPa 0,0 l/m 3,2 km/h (1 Bft) 0,00 h 5,7 km/h (1 Bft)
10.07.2010 23:00 29,4 C 27,8 C 0,0 UV-I 0,0 C 52 % 63 % 0 % 1018,0 hPa 0,1 l/m 3,1 km/h (1 Bft) 0,00 h 4,0 km/h (1 Bft)
11.07.2010 00:00 28,8 C 23,3 C 0,0 UV-I 0,0 C 55 % 77 % 0 % 1019,2 hPa 0,0 l/m 9,3 km/h (2 Bft) 0,00 h 11,3 km/h (2 Bft)
11.07.2010 01:00 28,2 C 22,2 C 0,0 UV-I 0,0 C 56 % 80 % 0 % 1020,6 hPa 2,3 l/m 4,7 km/h (1 Bft) 0,00 h 6,4 km/h (2 Bft)
11.07.2010 02:00 27,9 C 21,2 C 0,0 UV-I 0,0 C 58 % 88 % 0 % 1020,2 hPa 2,4 l/m 2,3 km/h (1 Bft) 0,00 h 3,0 km/h (1 Bft)
11.07.2010 03:00 27,6 C 21,0 C 0,0 UV-I 0,0 C 61 % 90 % 0 % 1020,1 hPa 0,1 l/m 0,7 km/h (0 Bft) 0,00 h 1,1 km/h (1 Bft)
11.07.2010 04:00 27,3 C 20,9 C 0,0 UV-I 0,0 C 62 % 92 % 0 % 1020,4 hPa 0,0 l/m 4,1 km/h (1 Bft) 0,00 h 3,7 km/h (1 Bft)
11.07.2010 05:00 27,2 C 20,7 C 0,0 UV-I 0,0 C 62 % 92 % 0 % 1019,4 hPa 0,0 l/m 0,3 km/h (0 Bft) 0,00 h 0,6 km/h (0 Bft)
11.07.2010 06:00 27,2 C 20,6 C 0,0 UV-I 0,0 C 62 % 93 % 0 % 1018,1 hPa 0,0 l/m 1,2 km/h (1 Bft) 0,00 h 1,8 km/h (1 Bft)
11.07.2010 07:00 27,1 C 21,1 C 0,6 UV-I 0,0 C 63 % 93 % 0 % 1019,1 hPa 0,0 l/m 1,7 km/h (1 Bft) 0,00 h 1,9 km/h (1 Bft)
11.07.2010 08:00 27,0 C 22,0 C 3,3 UV-I 2,8 C 64 % 92 % 64 % 1020,0 hPa 0,0 l/m 3,1 km/h (1 Bft) 0,53 h 4,8 km/h (1 Bft)
11.07.2010 09:00 27,2 C 24,2 C 6,4 UV-I 4,6 C 64 % 85 % 100 % 1020,4 hPa 0,0 l/m 3,0 km/h (1 Bft) 0,97 h 4,7 km/h (1 Bft)
11.07.2010 10:00 27,3 C 26,4 C 12,7 UV-I 5,7 C 64 % 76 % 100 % 1020,3 hPa 0,0 l/m 4,7 km/h (1 Bft) 0,73 h 6,5 km/h (2 Bft)
11.07.2010 11:00 27,6 C 27,8 C 10,4 UV-I 5,0 C 63 % 70 % 100 % 1020,4 hPa 0,0 l/m 2,6 km/h (1 Bft) 0,80 h 4,3 km/h (1 Bft)
11.07.2010 12:00 28,0 C 29,2 C 10,4 UV-I 4,7 C 62 % 64 % 100 % 1020,6 hPa 0,0 l/m 4,9 km/h (1 Bft) 0,65 h 6,7 km/h (2 Bft)
11.07.2010 13:00 28,4 C 30,8 C 9,8 UV-I 4,3 C 61 % 58 % 98 % 1020,6 hPa 0,0 l/m 5,5 km/h (1 Bft) 0,97 h 5,8 km/h (2 Bft)
11.07.2010 14:00 29,3 C 32,3 C 10,4 UV-I 4,7 C 59 % 53 % 100 % 1020,5 hPa 0,0 l/m 4,9 km/h (1 Bft) 0,93 h 7,3 km/h (2 Bft)
11.07.2010 15:00 30,3 C 32,5 C 7,9 UV-I 3,1 C 55 % 50 % 87 % 1020,7 hPa 0,0 l/m 3,4 km/h (1 Bft) 0,70 h 3,6 km/h (1 Bft)
11.07.2010 16:00 31,2 C 33,6 C 10,3 UV-I 4,1 C 52 % 46 % 98 % 1021,3 hPa 0,0 l/m 2,8 km/h (1 Bft) 0,87 h 3,9 km/h (1 Bft)
11.07.2010 17:00 32,0 C 34,3 C 10,3 UV-I 4,1 C 49 % 41 % 99 % 1021,2 hPa 0,0 l/m 3,8 km/h (1 Bft) 0,77 h 4,5 km/h (1 Bft)
11.07.2010 18:00 32,0 C 33,8 C 4,5 UV-I 3,4 C 48 % 42 % 79 % 1020,3 hPa 0,0 l/m 1,9 km/h (1 Bft) 0,43 h 2,9 km/h (1 Bft)
11.07.2010 19:00 31,0 C 33,0 C 1,9 UV-I 0,2 C 50 % 43 % 7 % 1019,2 hPa 0,0 l/m 1,6 km/h (1 Bft) 0,00 h 2,4 km/h (1 Bft)
11.07.2010 20:00 30,5 C 32,1 C 0,8 UV-I 0,0 C 51 % 48 % 0 % 1018,9 hPa 0,0 l/m 1,9 km/h (1 Bft) 0,00 h 2,2 km/h (1 Bft)
11.07.2010 21:00 30,1 C 29,0 C 0,0 UV-I 0,0 C 54 % 65 % 0 % 1019,4 hPa 0,0 l/m 6,3 km/h (2 Bft) 0,00 h 7,4 km/h (2 Bft)
11.07.2010 22:00 29,7 C 27,3 C 0,0 UV-I 0,0 C 56 % 71 % 0 % 1019,8 hPa 0,0 l/m 3,1 km/h (1 Bft) 0,00 h 3,9 km/h (1 Bft)
11.07.2010 23:00 29,2 C 25,8 C 0,0 UV-I 0,0 C 57 % 74 % 0 % 1020,0 hPa 0,0 l/m 5,2 km/h (1 Bft) 0,00 h 6,0 km/h (2 Bft)
Min-Datum _ 07.07.10 07.07.10 05.07.10 05.07.10 07.07.10 08.07.10 05.07.10 10.07.10 - 05.07.10 - 05.07.10
_ Min-Zeit 07:44 06:02 00:00 00:00 18:12 15:32 00:00 22:30 - 00:00 - 00:00
Minimum _ 21,8 C 10,2 C 0,0 UV-I 0,0 C 33 % 25 % 0 % 1016,9 hPa - 0,0 km/h (0 Bft) - 0,0 km/h (0 Bft)
Max-Datum _ 10.07.10 10.07.10 07.07.10 10.07.10 11.07.10 11.07.10 05.07.10 06.07.10 11.07.10 06.07.10 05.07.10 06.07.10
_ Max-Zeit 17:06 17:18 10:18 09:46 09:40 06:13 08:22 16:50 02:04 11:02 08:18 11:30
Maximum _ 32,4 C 37,7 C 17,7 UV-I 7,6 C 65 % 93 % 100 % 1029,2 hPa 2,4 l/m 12,0 km/h
W-SW (2 Bft)
0,03 h 27,7 km/h
W-SW (4 Bft)
Durchschnitt _ 26,5 C 24,0 C 4,0 UV-I 2,0 C 49 % 58 % 41 % 1022,9 hPa #5,0 l/m 2,7 km/h (1 Bft) #56:27 h 3,4 km/h (1 Bft)
© 2012 W. Hausmann